sensor_id;sensor_type;location;lat;lon;timestamp;P1;durP1;ratioP1;P2;durP2;ratioP2
40917;SDS011;26644;50.248;19.032;2022-07-06T00:01:22;49.95;;;26.75;;
40917;SDS011;26644;50.248;19.032;2022-07-06T00:04:24;53.78;;;28.80;;
40917;SDS011;26644;50.248;19.032;2022-07-06T00:07:27;58.42;;;30.42;;
40917;SDS011;26644;50.248;19.032;2022-07-06T00:10:30;59.10;;;29.35;;
40917;SDS011;26644;50.248;19.032;2022-07-06T00:13:32;61.25;;;32.33;;
40917;SDS011;26644;50.248;19.032;2022-07-06T00:16:34;57.50;;;28.75;;
40917;SDS011;26644;50.248;19.032;2022-07-06T00:19:36;49.58;;;28.58;;
40917;SDS011;26644;50.248;19.032;2022-07-06T00:22:39;52.17;;;27.90;;
40917;SDS011;26644;50.248;19.032;2022-07-06T00:25:41;48.00;;;25.67;;
40917;SDS011;26644;50.248;19.032;2022-07-06T00:28:42;43.13;;;25.10;;
40917;SDS011;26644;50.248;19.032;2022-07-06T00:31:44;47.00;;;26.90;;
40917;SDS011;26644;50.248;19.032;2022-07-06T00:34:46;43.25;;;23.73;;
40917;SDS011;26644;50.248;19.032;2022-07-06T00:37:50;48.35;;;25.58;;
40917;SDS011;26644;50.248;19.032;2022-07-06T00:40:52;42.50;;;24.50;;
40917;SDS011;26644;50.248;19.032;2022-07-06T00:43:54;48.20;;;26.38;;
40917;SDS011;26644;50.248;19.032;2022-07-06T00:46:57;45.17;;;26.10;;
40917;SDS011;26644;50.248;19.032;2022-07-06T00:49:59;49.78;;;27.17;;
40917;SDS011;26644;50.248;19.032;2022-07-06T00:53:19;50.08;;;28.17;;
40917;SDS011;26644;50.248;19.032;2022-07-06T00:56:21;51.40;;;26.63;;
40917;SDS011;26644;50.248;19.032;2022-07-06T00:59:24;54.85;;;27.25;;
40917;SDS011;26644;50.248;19.032;2022-07-06T01:02:26;45.08;;;27.63;;
40917;SDS011;26644;50.248;19.032;2022-07-06T01:05:28;60.60;;;27.85;;
40917;SDS011;26644;50.248;19.032;2022-07-06T01:08:32;56.17;;;29.73;;
40917;SDS011;26644;50.248;19.032;2022-07-06T01:11:34;60.15;;;32.50;;
40917;SDS011;26644;50.248;19.032;2022-07-06T01:14:36;55.92;;;31.52;;
40917;SDS011;26644;50.248;19.032;2022-07-06T01:17:38;58.63;;;32.78;;
40917;SDS011;26644;50.248;19.032;2022-07-06T01:20:43;61.17;;;34.95;;
40917;SDS011;26644;50.248;19.032;2022-07-06T01:23:46;58.00;;;33.83;;
40917;SDS011;26644;50.248;19.032;2022-07-06T01:26:49;69.97;;;37.60;;
40917;SDS011;26644;50.248;19.032;2022-07-06T01:29:51;65.35;;;35.22;;
40917;SDS011;26644;50.248;19.032;2022-07-06T01:32:53;70.50;;;37.78;;
40917;SDS011;26644;50.248;19.032;2022-07-06T01:35:56;65.20;;;37.60;;
40917;SDS011;26644;50.248;19.032;2022-07-06T01:38:58;67.05;;;37.55;;
40917;SDS011;26644;50.248;19.032;2022-07-06T01:42:00;72.40;;;39.60;;
40917;SDS011;26644;50.248;19.032;2022-07-06T01:45:02;66.82;;;38.40;;
40917;SDS011;26644;50.248;19.032;2022-07-06T01:48:05;69.45;;;36.70;;
40917;SDS011;26644;50.248;19.032;2022-07-06T01:51:10;67.75;;;37.00;;
40917;SDS011;26644;50.248;19.032;2022-07-06T01:54:13;65.95;;;38.08;;
40917;SDS011;26644;50.248;19.032;2022-07-06T01:57:16;61.72;;;34.80;;
40917;SDS011;26644;50.248;19.032;2022-07-06T02:00:17;65.53;;;35.85;;
40917;SDS011;26644;50.248;19.032;2022-07-06T02:03:23;68.95;;;36.10;;
40917;SDS011;26644;50.248;19.032;2022-07-06T02:06:26;63.65;;;33.47;;
40917;SDS011;26644;50.248;19.032;2022-07-06T02:09:28;63.28;;;33.35;;
40917;SDS011;26644;50.248;19.032;2022-07-06T02:12:30;58.10;;;33.10;;
40917;SDS011;26644;50.248;19.032;2022-07-06T02:15:32;65.40;;;35.15;;
40917;SDS011;26644;50.248;19.032;2022-07-06T02:18:34;58.15;;;32.58;;
40917;SDS011;26644;50.248;19.032;2022-07-06T02:21:38;59.40;;;31.80;;
40917;SDS011;26644;50.248;19.032;2022-07-06T02:24:40;52.58;;;31.17;;
40917;SDS011;26644;50.248;19.032;2022-07-06T02:27:42;54.88;;;31.23;;
40917;SDS011;26644;50.248;19.032;2022-07-06T02:30:45;52.13;;;31.38;;
40917;SDS011;26644;50.248;19.032;2022-07-06T02:33:47;55.50;;;32.58;;
40917;SDS011;26644;50.248;19.032;2022-07-06T02:36:50;50.53;;;29.23;;
40917;SDS011;26644;50.248;19.032;2022-07-06T02:39:53;48.35;;;29.92;;
40917;SDS011;26644;50.248;19.032;2022-07-06T02:42:55;53.58;;;29.65;;
40917;SDS011;26644;50.248;19.032;2022-07-06T02:45:57;54.60;;;31.35;;
40917;SDS011;26644;50.248;19.032;2022-07-06T02:49:00;51.80;;;30.40;;
40917;SDS011;26644;50.248;19.032;2022-07-06T02:52:04;55.05;;;31.50;;
40917;SDS011;26644;50.248;19.032;2022-07-06T02:55:07;56.20;;;33.38;;
40917;SDS011;26644;50.248;19.032;2022-07-06T02:58:09;57.05;;;32.58;;
40917;SDS011;26644;50.248;19.032;2022-07-06T03:01:11;57.97;;;32.85;;
40917;SDS011;26644;50.248;19.032;2022-07-06T03:04:13;58.80;;;34.03;;
40917;SDS011;26644;50.248;19.032;2022-07-06T03:07:16;57.90;;;32.30;;
40917;SDS011;26644;50.248;19.032;2022-07-06T03:10:19;58.53;;;32.17;;
40917;SDS011;26644;50.248;19.032;2022-07-06T03:13:21;59.35;;;33.50;;
40917;SDS011;26644;50.248;19.032;2022-07-06T03:16:24;54.90;;;32.92;;
40917;SDS011;26644;50.248;19.032;2022-07-06T03:19:26;57.00;;;32.00;;
40917;SDS011;26644;50.248;19.032;2022-07-06T03:22:30;60.70;;;33.78;;
40917;SDS011;26644;50.248;19.032;2022-07-06T03:25:33;60.13;;;33.08;;
40917;SDS011;26644;50.248;19.032;2022-07-06T03:28:36;57.30;;;32.00;;
40917;SDS011;26644;50.248;19.032;2022-07-06T03:31:38;56.13;;;32.95;;
40917;SDS011;26644;50.248;19.032;2022-07-06T03:34:40;49.05;;;28.85;;
40917;SDS011;26644;50.248;19.032;2022-07-06T03:37:43;46.45;;;28.52;;
40917;SDS011;26644;50.248;19.032;2022-07-06T03:40:45;40.78;;;27.00;;
40917;SDS011;26644;50.248;19.032;2022-07-06T03:43:47;47.20;;;27.27;;
40917;SDS011;26644;50.248;19.032;2022-07-06T03:46:49;41.25;;;26.60;;
40917;SDS011;26644;50.248;19.032;2022-07-06T03:49:52;43.65;;;27.02;;
40917;SDS011;26644;50.248;19.032;2022-07-06T03:52:55;38.90;;;25.77;;
40917;SDS011;26644;50.248;19.032;2022-07-06T03:55:57;40.67;;;26.33;;
40917;SDS011;26644;50.248;19.032;2022-07-06T03:59:16;42.00;;;25.48;;
40917;SDS011;26644;50.248;19.032;2022-07-06T04:02:18;35.22;;;24.42;;
40917;SDS011;26644;50.248;19.032;2022-07-06T04:05:23;33.63;;;22.67;;
40917;SDS011;26644;50.248;19.032;2022-07-06T04:08:28;37.25;;;22.58;;
40917;SDS011;26644;50.248;19.032;2022-07-06T04:11:32;31.50;;;21.02;;
40917;SDS011;26644;50.248;19.032;2022-07-06T04:14:34;29.58;;;19.73;;
40917;SDS011;26644;50.248;19.032;2022-07-06T04:17:38;34.10;;;22.25;;
40917;SDS011;26644;50.248;19.032;2022-07-06T04:21:07;32.97;;;21.60;;
40917;SDS011;26644;50.248;19.032;2022-07-06T04:24:12;33.22;;;22.63;;
40917;SDS011;26644;50.248;19.032;2022-07-06T04:27:14;34.47;;;22.15;;
40917;SDS011;26644;50.248;19.032;2022-07-06T04:30:17;33.30;;;22.30;;
40917;SDS011;26644;50.248;19.032;2022-07-06T04:33:19;37.38;;;24.90;;
40917;SDS011;26644;50.248;19.032;2022-07-06T04:36:23;39.60;;;26.20;;
40917;SDS011;26644;50.248;19.032;2022-07-06T04:39:26;44.50;;;27.08;;
40917;SDS011;26644;50.248;19.032;2022-07-06T04:42:31;42.90;;;26.73;;
40917;SDS011;26644;50.248;19.032;2022-07-06T04:45:33;49.67;;;30.63;;
40917;SDS011;26644;50.248;19.032;2022-07-06T04:48:35;48.95;;;28.33;;
40917;SDS011;26644;50.248;19.032;2022-07-06T04:51:40;44.05;;;28.48;;
40917;SDS011;26644;50.248;19.032;2022-07-06T04:54:44;53.38;;;30.58;;
40917;SDS011;26644;50.248;19.032;2022-07-06T04:57:47;50.83;;;30.05;;
40917;SDS011;26644;50.248;19.032;2022-07-06T05:00:51;49.97;;;30.95;;
40917;SDS011;26644;50.248;19.032;2022-07-06T05:03:54;51.63;;;30.17;;
40917;SDS011;26644;50.248;19.032;2022-07-06T05:06:58;55.05;;;31.00;;
40917;SDS011;26644;50.248;19.032;2022-07-06T05:10:02;52.15;;;30.83;;
40917;SDS011;26644;50.248;19.032;2022-07-06T05:13:06;55.42;;;32.25;;
40917;SDS011;26644;50.248;19.032;2022-07-06T05:16:09;57.58;;;30.98;;
40917;SDS011;26644;50.248;19.032;2022-07-06T05:19:11;65.47;;;35.08;;
40917;SDS011;26644;50.248;19.032;2022-07-06T05:22:13;55.47;;;32.60;;
40917;SDS011;26644;50.248;19.032;2022-07-06T05:25:16;56.03;;;32.58;;
40917;SDS011;26644;50.248;19.032;2022-07-06T05:28:19;54.97;;;32.20;;
40917;SDS011;26644;50.248;19.032;2022-07-06T05:31:21;55.90;;;32.65;;
40917;SDS011;26644;50.248;19.032;2022-07-06T05:34:23;49.75;;;32.42;;
40917;SDS011;26644;50.248;19.032;2022-07-06T05:37:24;54.55;;;31.95;;
40917;SDS011;26644;50.248;19.032;2022-07-06T05:40:28;52.08;;;30.45;;
40917;SDS011;26644;50.248;19.032;2022-07-06T05:43:31;54.85;;;31.20;;
40917;SDS011;26644;50.248;19.032;2022-07-06T05:46:35;44.35;;;25.60;;
40917;SDS011;26644;50.248;19.032;2022-07-06T05:49:37;38.85;;;24.05;;
40917;SDS011;26644;50.248;19.032;2022-07-06T05:52:57;35.20;;;22.85;;
40917;SDS011;26644;50.248;19.032;2022-07-06T05:56:04;31.98;;;20.83;;
40917;SDS011;26644;50.248;19.032;2022-07-06T05:59:07;32.40;;;22.75;;
40917;SDS011;26644;50.248;19.032;2022-07-06T06:02:10;31.27;;;21.73;;
40917;SDS011;26644;50.248;19.032;2022-07-06T06:05:13;31.88;;;22.42;;
40917;SDS011;26644;50.248;19.032;2022-07-06T06:08:17;35.70;;;23.05;;
40917;SDS011;26644;50.248;19.032;2022-07-06T06:11:21;33.13;;;20.30;;
40917;SDS011;26644;50.248;19.032;2022-07-06T06:14:23;35.15;;;21.80;;
40917;SDS011;26644;50.248;19.032;2022-07-06T06:17:26;39.38;;;23.98;;
40917;SDS011;26644;50.248;19.032;2022-07-06T06:20:30;38.95;;;24.88;;
40917;SDS011;26644;50.248;19.032;2022-07-06T06:23:32;40.92;;;25.48;;
40917;SDS011;26644;50.248;19.032;2022-07-06T06:26:35;39.33;;;23.85;;
40917;SDS011;26644;50.248;19.032;2022-07-06T06:29:37;42.20;;;25.60;;
40917;SDS011;26644;50.248;19.032;2022-07-06T06:32:39;48.72;;;30.00;;
40917;SDS011;26644;50.248;19.032;2022-07-06T06:35:42;50.58;;;31.25;;
40917;SDS011;26644;50.248;19.032;2022-07-06T06:38:45;52.40;;;30.55;;
40917;SDS011;26644;50.248;19.032;2022-07-06T06:41:49;42.58;;;27.17;;
40917;SDS011;26644;50.248;19.032;2022-07-06T06:44:51;41.42;;;25.23;;
40917;SDS011;26644;50.248;19.032;2022-07-06T06:47:53;37.45;;;24.92;;
40917;SDS011;26644;50.248;19.032;2022-07-06T06:50:55;36.00;;;23.88;;
40917;SDS011;26644;50.248;19.032;2022-07-06T06:53:57;39.47;;;23.83;;
40917;SDS011;26644;50.248;19.032;2022-07-06T06:57:00;36.38;;;23.27;;
40917;SDS011;26644;50.248;19.032;2022-07-06T07:00:02;36.95;;;24.38;;
40917;SDS011;26644;50.248;19.032;2022-07-06T07:03:04;44.83;;;27.98;;
40917;SDS011;26644;50.248;19.032;2022-07-06T07:06:06;40.80;;;26.92;;
40917;SDS011;26644;50.248;19.032;2022-07-06T07:09:08;38.25;;;25.30;;
40917;SDS011;26644;50.248;19.032;2022-07-06T07:12:11;34.05;;;20.85;;
40917;SDS011;26644;50.248;19.032;2022-07-06T07:15:15;31.38;;;20.08;;
40917;SDS011;26644;50.248;19.032;2022-07-06T07:18:17;25.25;;;18.27;;
40917;SDS011;26644;50.248;19.032;2022-07-06T07:21:19;20.52;;;16.75;;
40917;SDS011;26644;50.248;19.032;2022-07-06T07:24:21;19.13;;;16.15;;
40917;SDS011;26644;50.248;19.032;2022-07-06T07:27:24;17.65;;;13.40;;
40917;SDS011;26644;50.248;19.032;2022-07-06T07:30:26;30.33;;;15.73;;
40917;SDS011;26644;50.248;19.032;2022-07-06T07:33:28;15.98;;;12.50;;
40917;SDS011;26644;50.248;19.032;2022-07-06T07:36:29;13.40;;;11.93;;
40917;SDS011;26644;50.248;19.032;2022-07-06T07:39:31;16.52;;;12.48;;
40917;SDS011;26644;50.248;19.032;2022-07-06T07:42:34;20.98;;;13.80;;
40917;SDS011;26644;50.248;19.032;2022-07-06T07:45:39;22.27;;;17.88;;
40917;SDS011;26644;50.248;19.032;2022-07-06T07:48:41;23.02;;;17.48;;
40917;SDS011;26644;50.248;19.032;2022-07-06T07:51:43;22.35;;;19.13;;
40917;SDS011;26644;50.248;19.032;2022-07-06T07:54:47;22.65;;;19.65;;
40917;SDS011;26644;50.248;19.032;2022-07-06T07:57:50;24.02;;;18.90;;
40917;SDS011;26644;50.248;19.032;2022-07-06T08:00:52;19.73;;;15.52;;
40917;SDS011;26644;50.248;19.032;2022-07-06T08:03:53;19.23;;;15.07;;
40917;SDS011;26644;50.248;19.032;2022-07-06T08:06:55;14.35;;;12.85;;
40917;SDS011;26644;50.248;19.032;2022-07-06T08:09:57;13.27;;;11.80;;
40917;SDS011;26644;50.248;19.032;2022-07-06T08:13:00;12.48;;;11.20;;
40917;SDS011;26644;50.248;19.032;2022-07-06T08:16:02;10.27;;;9.13;;
40917;SDS011;26644;50.248;19.032;2022-07-06T08:19:04;10.07;;;7.35;;
40917;SDS011;26644;50.248;19.032;2022-07-06T08:22:06;8.05;;;7.25;;
40917;SDS011;26644;50.248;19.032;2022-07-06T08:25:08;7.47;;;6.78;;
40917;SDS011;26644;50.248;19.032;2022-07-06T08:28:12;8.82;;;6.88;;
40917;SDS011;26644;50.248;19.032;2022-07-06T08:31:14;7.75;;;6.95;;
40917;SDS011;26644;50.248;19.032;2022-07-06T08:34:16;8.55;;;6.07;;
40917;SDS011;26644;50.248;19.032;2022-07-06T08:37:18;7.00;;;5.25;;
40917;SDS011;26644;50.248;19.032;2022-07-06T08:40:20;4.63;;;3.90;;
40917;SDS011;26644;50.248;19.032;2022-07-06T08:43:24;4.20;;;3.80;;
40917;SDS011;26644;50.248;19.032;2022-07-06T08:46:27;5.15;;;3.72;;
40917;SDS011;26644;50.248;19.032;2022-07-06T08:49:29;6.10;;;3.45;;
40917;SDS011;26644;50.248;19.032;2022-07-06T08:52:32;6.00;;;3.20;;
40917;SDS011;26644;50.248;19.032;2022-07-06T08:55:35;5.50;;;3.85;;
40917;SDS011;26644;50.248;19.032;2022-07-06T08:58:38;3.92;;;3.47;;
40917;SDS011;26644;50.248;19.032;2022-07-06T09:01:41;7.13;;;4.28;;
40917;SDS011;26644;50.248;19.032;2022-07-06T09:04:44;3.67;;;3.28;;
40917;SDS011;26644;50.248;19.032;2022-07-06T09:07:49;4.78;;;3.22;;
40917;SDS011;26644;50.248;19.032;2022-07-06T09:10:52;6.57;;;2.55;;
40917;SDS011;26644;50.248;19.032;2022-07-06T09:13:56;3.95;;;2.50;;
40917;SDS011;26644;50.248;19.032;2022-07-06T09:17:01;6.47;;;2.47;;
40917;SDS011;26644;50.248;19.032;2022-07-06T09:20:05;3.75;;;2.17;;
40917;SDS011;26644;50.248;19.032;2022-07-06T09:23:08;3.35;;;2.58;;
40917;SDS011;26644;50.248;19.032;2022-07-06T09:26:11;4.70;;;2.20;;
40917;SDS011;26644;50.248;19.032;2022-07-06T09:29:14;5.63;;;2.70;;
40917;SDS011;26644;50.248;19.032;2022-07-06T09:32:19;4.13;;;2.75;;
40917;SDS011;26644;50.248;19.032;2022-07-06T09:35:22;2.72;;;1.90;;
40917;SDS011;26644;50.248;19.032;2022-07-06T09:38:25;3.85;;;2.00;;
40917;SDS011;26644;50.248;19.032;2022-07-06T09:41:31;2.90;;;1.90;;
40917;SDS011;26644;50.248;19.032;2022-07-06T09:44:35;4.43;;;1.70;;
40917;SDS011;26644;50.248;19.032;2022-07-06T09:47:39;3.97;;;2.03;;
40917;SDS011;26644;50.248;19.032;2022-07-06T09:50:48;2.45;;;1.50;;
40917;SDS011;26644;50.248;19.032;2022-07-06T09:53:53;2.63;;;1.30;;
40917;SDS011;26644;50.248;19.032;2022-07-06T09:56:59;4.03;;;1.80;;
40917;SDS011;26644;50.248;19.032;2022-07-06T10:00:04;3.80;;;2.00;;
40917;SDS011;26644;50.248;19.032;2022-07-06T10:03:13;2.30;;;1.92;;
40917;SDS011;26644;50.248;19.032;2022-07-06T10:06:18;6.55;;;2.28;;
40917;SDS011;26644;50.248;19.032;2022-07-06T10:09:20;4.25;;;2.20;;
40917;SDS011;26644;50.248;19.032;2022-07-06T10:12:24;2.88;;;1.80;;
40917;SDS011;26644;50.248;19.032;2022-07-06T10:15:28;2.50;;;1.80;;
40917;SDS011;26644;50.248;19.032;2022-07-06T10:18:32;2.45;;;1.50;;
40917;SDS011;26644;50.248;19.032;2022-07-06T10:21:35;2.70;;;2.20;;
40917;SDS011;26644;50.248;19.032;2022-07-06T10:24:38;3.00;;;1.90;;
40917;SDS011;26644;50.248;19.032;2022-07-06T10:27:44;3.83;;;1.90;;
40917;SDS011;26644;50.248;19.032;2022-07-06T10:30:49;5.00;;;2.38;;
40917;SDS011;26644;50.248;19.032;2022-07-06T10:33:51;4.43;;;2.20;;
40917;SDS011;26644;50.248;19.032;2022-07-06T10:36:54;3.08;;;2.72;;
40917;SDS011;26644;50.248;19.032;2022-07-06T10:39:56;3.95;;;2.50;;
40917;SDS011;26644;50.248;19.032;2022-07-06T10:43:15;4.82;;;2.97;;
40917;SDS011;26644;50.248;19.032;2022-07-06T10:46:19;4.85;;;2.15;;
40917;SDS011;26644;50.248;19.032;2022-07-06T10:49:21;6.60;;;2.30;;
40917;SDS011;26644;50.248;19.032;2022-07-06T10:52:23;2.80;;;2.13;;
40917;SDS011;26644;50.248;19.032;2022-07-06T10:55:45;3.08;;;1.90;;
40917;SDS011;26644;50.248;19.032;2022-07-06T10:58:51;3.42;;;2.03;;
40917;SDS011;26644;50.248;19.032;2022-07-06T11:08:45;1.48;;;1.30;;
40917;SDS011;26644;50.248;19.032;2022-07-06T11:11:48;2.60;;;1.73;;
40917;SDS011;26644;50.248;19.032;2022-07-06T11:14:50;4.68;;;2.00;;
40917;SDS011;26644;50.248;19.032;2022-07-06T11:21:14;3.25;;;2.00;;
40917;SDS011;26644;50.248;19.032;2022-07-06T11:24:21;1.80;;;1.70;;
40917;SDS011;26644;50.248;19.032;2022-07-06T11:27:23;3.88;;;1.60;;
40917;SDS011;26644;50.248;19.032;2022-07-06T11:30:25;1.75;;;1.55;;
40917;SDS011;26644;50.248;19.032;2022-07-06T11:33:29;4.35;;;2.53;;
40917;SDS011;26644;50.248;19.032;2022-07-06T11:36:31;2.38;;;2.13;;
40917;SDS011;26644;50.248;19.032;2022-07-06T11:39:33;10.93;;;3.15;;
40917;SDS011;26644;50.248;19.032;2022-07-06T11:42:36;3.47;;;1.90;;
40917;SDS011;26644;50.248;19.032;2022-07-06T11:45:39;5.45;;;2.22;;
40917;SDS011;26644;50.248;19.032;2022-07-06T11:48:46;2.35;;;2.10;;
40917;SDS011;26644;50.248;19.032;2022-07-06T11:51:48;4.38;;;2.13;;
40917;SDS011;26644;50.248;19.032;2022-07-06T11:54:56;6.20;;;2.65;;
40917;SDS011;26644;50.248;19.032;2022-07-06T11:57:59;6.03;;;2.15;;
40917;SDS011;26644;50.248;19.032;2022-07-06T12:01:03;2.60;;;2.40;;
40917;SDS011;26644;50.248;19.032;2022-07-06T12:04:07;3.58;;;2.45;;
40917;SDS011;26644;50.248;19.032;2022-07-06T12:07:09;2.78;;;2.58;;
40917;SDS011;26644;50.248;19.032;2022-07-06T12:10:12;4.07;;;2.47;;
40917;SDS011;26644;50.248;19.032;2022-07-06T12:13:14;3.65;;;2.53;;
40917;SDS011;26644;50.248;19.032;2022-07-06T12:16:16;3.63;;;2.33;;
40917;SDS011;26644;50.248;19.032;2022-07-06T12:19:19;3.58;;;2.38;;
40917;SDS011;26644;50.248;19.032;2022-07-06T12:22:24;2.38;;;2.17;;
40917;SDS011;26644;50.248;19.032;2022-07-06T12:25:29;3.22;;;2.58;;
40917;SDS011;26644;50.248;19.032;2022-07-06T12:28:32;3.83;;;2.72;;
40917;SDS011;26644;50.248;19.032;2022-07-06T12:31:34;4.65;;;2.47;;
40917;SDS011;26644;50.248;19.032;2022-07-06T12:34:38;4.85;;;2.53;;
40917;SDS011;26644;50.248;19.032;2022-07-06T12:37:53;4.35;;;2.05;;
40917;SDS011;26644;50.248;19.032;2022-07-06T12:40:56;4.35;;;2.40;;
40917;SDS011;26644;50.248;19.032;2022-07-06T12:44:02;2.38;;;2.17;;
40917;SDS011;26644;50.248;19.032;2022-07-06T12:47:06;2.60;;;2.30;;
40917;SDS011;26644;50.248;19.032;2022-07-06T12:50:11;6.57;;;2.45;;
40917;SDS011;26644;50.248;19.032;2022-07-06T12:53:23;4.72;;;2.63;;
40917;SDS011;26644;50.248;19.032;2022-07-06T12:56:26;4.22;;;2.72;;
40917;SDS011;26644;50.248;19.032;2022-07-06T12:59:28;5.05;;;2.78;;
40917;SDS011;26644;50.248;19.032;2022-07-06T13:02:30;4.10;;;2.15;;
40917;SDS011;26644;50.248;19.032;2022-07-06T13:05:36;4.03;;;2.40;;
40917;SDS011;26644;50.248;19.032;2022-07-06T13:08:38;3.78;;;2.00;;
40917;SDS011;26644;50.248;19.032;2022-07-06T13:11:40;4.07;;;2.20;;
40917;SDS011;26644;50.248;19.032;2022-07-06T13:14:42;4.40;;;2.60;;
40917;SDS011;26644;50.248;19.032;2022-07-06T13:17:44;3.75;;;2.50;;
40917;SDS011;26644;50.248;19.032;2022-07-06T13:20:47;4.30;;;2.83;;
40917;SDS011;26644;50.248;19.032;2022-07-06T13:23:49;3.90;;;2.22;;
40917;SDS011;26644;50.248;19.032;2022-07-06T13:26:51;4.50;;;2.47;;
40917;SDS011;26644;50.248;19.032;2022-07-06T13:29:52;3.97;;;2.70;;
40917;SDS011;26644;50.248;19.032;2022-07-06T13:32:55;3.35;;;2.25;;
40917;SDS011;26644;50.248;19.032;2022-07-06T13:35:59;3.25;;;2.60;;
40917;SDS011;26644;50.248;19.032;2022-07-06T13:39:02;4.18;;;2.70;;
40917;SDS011;26644;50.248;19.032;2022-07-06T13:42:05;3.40;;;2.40;;
40917;SDS011;26644;50.248;19.032;2022-07-06T13:45:08;2.63;;;2.00;;
40917;SDS011;26644;50.248;19.032;2022-07-06T13:48:10;3.55;;;2.33;;
40917;SDS011;26644;50.248;19.032;2022-07-06T13:51:14;2.97;;;2.10;;
40917;SDS011;26644;50.248;19.032;2022-07-06T13:54:15;3.78;;;2.28;;
40917;SDS011;26644;50.248;19.032;2022-07-06T13:57:17;2.00;;;1.80;;
40917;SDS011;26644;50.248;19.032;2022-07-06T14:00:19;5.68;;;2.35;;
40917;SDS011;26644;50.248;19.032;2022-07-06T14:03:21;2.42;;;2.22;;
40917;SDS011;26644;50.248;19.032;2022-07-06T14:06:29;3.30;;;2.00;;
40917;SDS011;26644;50.248;19.032;2022-07-06T14:09:31;3.67;;;2.20;;
40917;SDS011;26644;50.248;19.032;2022-07-06T14:12:33;4.10;;;2.60;;
40917;SDS011;26644;50.248;19.032;2022-07-06T14:15:35;5.95;;;2.85;;
40917;SDS011;26644;50.248;19.032;2022-07-06T14:18:37;3.83;;;2.50;;
40917;SDS011;26644;50.248;19.032;2022-07-06T14:21:40;4.85;;;2.20;;
40917;SDS011;26644;50.248;19.032;2022-07-06T14:24:42;3.20;;;2.25;;
40917;SDS011;26644;50.248;19.032;2022-07-06T14:27:43;3.22;;;2.15;;
40917;SDS011;26644;50.248;19.032;2022-07-06T14:30:45;4.47;;;2.53;;
40917;SDS011;26644;50.248;19.032;2022-07-06T14:33:47;3.50;;;1.98;;
40917;SDS011;26644;50.248;19.032;2022-07-06T14:36:51;3.20;;;1.80;;
40917;SDS011;26644;50.248;19.032;2022-07-06T14:39:53;3.95;;;2.20;;
40917;SDS011;26644;50.248;19.032;2022-07-06T14:42:55;6.43;;;2.90;;
40917;SDS011;26644;50.248;19.032;2022-07-06T14:45:56;2.63;;;2.10;;
40917;SDS011;26644;50.248;19.032;2022-07-06T14:48:58;4.95;;;2.20;;
40917;SDS011;26644;50.248;19.032;2022-07-06T14:52:02;3.60;;;1.95;;
40917;SDS011;26644;50.248;19.032;2022-07-06T14:55:04;4.72;;;2.05;;
40917;SDS011;26644;50.248;19.032;2022-07-06T14:58:06;3.97;;;1.80;;
40917;SDS011;26644;50.248;19.032;2022-07-06T15:01:08;3.78;;;1.77;;
40917;SDS011;26644;50.248;19.032;2022-07-06T15:04:10;2.22;;;1.90;;
40917;SDS011;26644;50.248;19.032;2022-07-06T15:07:13;2.50;;;1.98;;
40917;SDS011;26644;50.248;19.032;2022-07-06T15:10:15;6.75;;;2.47;;
40917;SDS011;26644;50.248;19.032;2022-07-06T15:13:17;8.68;;;2.28;;
40917;SDS011;26644;50.248;19.032;2022-07-06T15:16:20;7.32;;;2.67;;
40917;SDS011;26644;50.248;19.032;2022-07-06T15:19:22;5.85;;;2.80;;
40917;SDS011;26644;50.248;19.032;2022-07-06T15:22:25;6.40;;;2.50;;
40917;SDS011;26644;50.248;19.032;2022-07-06T15:25:27;3.25;;;2.40;;
40917;SDS011;26644;50.248;19.032;2022-07-06T15:28:29;3.92;;;2.78;;
40917;SDS011;26644;50.248;19.032;2022-07-06T15:31:31;4.53;;;2.60;;
40917;SDS011;26644;50.248;19.032;2022-07-06T15:34:32;4.35;;;2.70;;
40917;SDS011;26644;50.248;19.032;2022-07-06T15:37:36;4.07;;;1.90;;
40917;SDS011;26644;50.248;19.032;2022-07-06T15:40:38;6.75;;;2.10;;
40917;SDS011;26644;50.248;19.032;2022-07-06T15:44:03;3.80;;;2.85;;
40917;SDS011;26644;50.248;19.032;2022-07-06T15:47:06;3.25;;;1.67;;
40917;SDS011;26644;50.248;19.032;2022-07-06T15:50:08;4.18;;;2.15;;
40917;SDS011;26644;50.248;19.032;2022-07-06T15:53:12;2.72;;;2.00;;
40917;SDS011;26644;50.248;19.032;2022-07-06T15:56:14;5.35;;;2.05;;
40917;SDS011;26644;50.248;19.032;2022-07-06T15:59:15;5.97;;;1.77;;
40917;SDS011;26644;50.248;19.032;2022-07-06T16:02:17;3.65;;;1.80;;
40917;SDS011;26644;50.248;19.032;2022-07-06T16:05:19;3.15;;;1.92;;
40917;SDS011;26644;50.248;19.032;2022-07-06T16:08:23;4.43;;;2.17;;
40917;SDS011;26644;50.248;19.032;2022-07-06T16:11:25;5.95;;;2.50;;
40917;SDS011;26644;50.248;19.032;2022-07-06T16:14:27;5.40;;;2.63;;
40917;SDS011;26644;50.248;19.032;2022-07-06T16:17:29;3.53;;;2.33;;
40917;SDS011;26644;50.248;19.032;2022-07-06T16:20:31;2.63;;;1.65;;
40917;SDS011;26644;50.248;19.032;2022-07-06T16:23:34;3.22;;;2.05;;
40917;SDS011;26644;50.248;19.032;2022-07-06T16:26:36;4.72;;;2.20;;
40917;SDS011;26644;50.248;19.032;2022-07-06T16:29:38;5.88;;;1.80;;
40917;SDS011;26644;50.248;19.032;2022-07-06T16:32:40;2.40;;;1.83;;
40917;SDS011;26644;50.248;19.032;2022-07-06T16:35:42;5.93;;;1.80;;
40917;SDS011;26644;50.248;19.032;2022-07-06T16:38:45;6.13;;;2.13;;
40917;SDS011;26644;50.248;19.032;2022-07-06T16:41:47;3.78;;;1.90;;
40917;SDS011;26644;50.248;19.032;2022-07-06T16:44:51;3.72;;;2.15;;
40917;SDS011;26644;50.248;19.032;2022-07-06T16:47:53;2.65;;;1.70;;
40917;SDS011;26644;50.248;19.032;2022-07-06T16:50:55;11.10;;;3.40;;
40917;SDS011;26644;50.248;19.032;2022-07-06T16:53:59;5.65;;;2.25;;
40917;SDS011;26644;50.248;19.032;2022-07-06T16:57:01;3.17;;;2.38;;
40917;SDS011;26644;50.248;19.032;2022-07-06T17:00:04;3.33;;;1.80;;
40917;SDS011;26644;50.248;19.032;2022-07-06T17:03:07;4.72;;;2.10;;
40917;SDS011;26644;50.248;19.032;2022-07-06T17:06:09;3.80;;;2.08;;
40917;SDS011;26644;50.248;19.032;2022-07-06T17:09:12;3.85;;;2.75;;
40917;SDS011;26644;50.248;19.032;2022-07-06T17:12:14;5.65;;;2.10;;
40917;SDS011;26644;50.248;19.032;2022-07-06T17:15:15;3.42;;;2.15;;
40917;SDS011;26644;50.248;19.032;2022-07-06T17:18:17;6.53;;;2.17;;
40917;SDS011;26644;50.248;19.032;2022-07-06T17:21:19;7.10;;;2.05;;
40917;SDS011;26644;50.248;19.032;2022-07-06T17:24:24;4.63;;;2.10;;
40917;SDS011;26644;50.248;19.032;2022-07-06T17:27:26;4.93;;;3.05;;
40917;SDS011;26644;50.248;19.032;2022-07-06T17:30:28;5.00;;;2.42;;
40917;SDS011;26644;50.248;19.032;2022-07-06T17:33:32;3.70;;;1.85;;
40917;SDS011;26644;50.248;19.032;2022-07-06T17:36:34;5.05;;;2.30;;
40917;SDS011;26644;50.248;19.032;2022-07-06T17:39:38;4.15;;;2.33;;
40917;SDS011;26644;50.248;19.032;2022-07-06T17:42:43;3.92;;;2.42;;
40917;SDS011;26644;50.248;19.032;2022-07-06T17:45:46;3.80;;;2.33;;
40917;SDS011;26644;50.248;19.032;2022-07-06T17:48:47;3.55;;;2.08;;
40917;SDS011;26644;50.248;19.032;2022-07-06T17:51:49;3.63;;;2.17;;
40917;SDS011;26644;50.248;19.032;2022-07-06T17:54:52;3.00;;;2.45;;
40917;SDS011;26644;50.248;19.032;2022-07-06T17:57:54;4.60;;;2.05;;
40917;SDS011;26644;50.248;19.032;2022-07-06T18:00:56;3.15;;;2.05;;
40917;SDS011;26644;50.248;19.032;2022-07-06T18:03:58;3.88;;;2.17;;